Time;durP1;ratioP1;P1;durP2;ratioP2;P2;SDS_P1;SDS_P2;PMS_P1;PMS_P2;Temp;Humidity;BMP_temperature;BMP_pressure;BME280_temperature;BME280_humidity;BME280_pressure;Samples;Min_cycle;Max_cycle;Signal;HPM_P1;HPM_P2
2023/04/18 00:01:17;;;;;;;15.68;9.60;;;;;;;7.67;100.00;102538.06;5072862;28;20067;-54
2023/04/18 00:03:47;;;;;;;12.43;8.13;;;;;;;7.70;100.00;102546.72;5076862;28;20543;-53
2023/04/18 00:06:15;;;;;;;15.00;8.50;;;;;;;7.60;100.00;102538.22;5076203;28;20045;-55
2023/04/18 00:08:44;;;;;;;12.88;8.35;;;;;;;7.55;100.00;102540.13;5072676;28;20044;-52
2023/04/18 00:11:12;;;;;;;14.68;8.38;;;;;;;7.59;100.00;102544.38;5071815;28;20110;-52
2023/04/18 00:13:46;;;;;;;12.20;7.78;;;;;;;7.56;100.00;102539.19;5075264;28;20098;-53
2023/04/18 00:16:14;;;;;;;13.70;9.13;;;;;;;7.51;100.00;102540.22;5075574;28;20114;-52
2023/04/18 00:18:42;;;;;;;14.00;8.63;;;;;;;7.49;100.00;102544.63;5075664;28;20055;-54
2023/04/18 00:21:12;;;;;;;14.07;8.40;;;;;;;7.44;100.00;102544.75;5075385;28;20136;-51
2023/04/18 00:23:40;;;;;;;13.30;8.52;;;;;;;7.47;100.00;102546.41;5075253;28;20479;-53
2023/04/18 00:26:08;;;;;;;15.05;8.10;;;;;;;7.40;100.00;102543.09;5075528;28;20519;-53
2023/04/18 00:28:36;;;;;;;14.98;8.32;;;;;;;7.31;100.00;102546.81;5073991;28;20527;-53
2023/04/18 00:31:05;;;;;;;13.10;8.85;;;;;;;7.31;100.00;102541.56;5071608;28;20079;-53
2023/04/18 00:33:34;;;;;;;15.35;9.05;;;;;;;7.18;100.00;102534.91;5071973;28;20450;-54
2023/04/18 00:36:03;;;;;;;23.98;8.10;;;;;;;7.10;100.00;102535.09;5073867;28;20123;-51
2023/04/18 00:38:32;;;;;;;15.05;8.90;;;;;;;7.16;100.00;102532.34;5073639;28;20044;-51
2023/04/18 00:41:01;;;;;;;12.82;7.75;;;;;;;7.08;100.00;102539.50;5073110;28;20503;-53
2023/04/18 00:43:29;;;;;;;15.63;7.75;;;;;;;7.05;100.00;102539.59;5073450;28;20060;-54
2023/04/18 00:46:00;;;;;;;15.93;7.95;;;;;;;6.97;100.00;102531.91;5072852;28;20095;-54
2023/04/18 00:48:29;;;;;;;16.08;8.30;;;;;;;6.97;100.00;102528.41;5071274;28;20079;-53
2023/04/18 00:50:59;;;;;;;16.27;8.25;;;;;;;6.89;100.00;102532.06;5074065;28;20086;-52
2023/04/18 00:53:27;;;;;;;14.23;8.48;;;;;;;6.90;100.00;102525.09;5074925;28;20548;-52
2023/04/18 00:55:57;;;;;;;15.13;8.50;;;;;;;6.82;100.00;102530.50;5073290;28;20041;-52
2023/04/18 00:58:26;;;;;;;13.48;8.50;;;;;;;6.77;100.00;102521.88;5070009;28;20045;-53
2023/04/18 01:00:54;;;;;;;13.32;8.45;;;;;;;6.71;100.00;102528.13;5070828;28;20051;-53
2023/04/18 01:03:26;;;;;;;12.50;8.30;;;;;;;6.68;100.00;102524.69;5071102;28;20044;-54
2023/04/18 01:05:56;;;;;;;14.60;8.52;;;;;;;6.65;100.00;102532.63;5074412;28;20064;-61
2023/04/18 01:08:25;;;;;;;11.93;8.20;;;;;;;6.62;100.00;102527.47;5072769;28;20527;-60
2023/04/18 01:10:53;;;;;;;15.50;8.25;;;;;;;6.59;100.00;102525.78;5070808;28;20074;-60
2023/04/18 01:13:25;;;;;;;16.60;8.20;;;;;;;6.53;100.00;102529.38;5069752;28;20040;-60
2023/04/18 01:15:54;;;;;;;13.15;8.07;;;;;;;6.54;100.00;102528.47;5070573;28;20052;-61
2023/04/18 01:18:23;;;;;;;14.43;8.10;;;;;;;6.47;100.00;102529.50;5070911;28;20082;-60
2023/04/18 01:20:53;;;;;;;13.18;8.02;;;;;;;6.44;100.00;102529.56;5070477;28;20385;-61
2023/04/18 01:23:21;;;;;;;13.30;7.75;;;;;;;6.42;100.00;102524.38;5070269;28;20475;-60
2023/04/18 01:25:51;;;;;;;15.00;7.97;;;;;;;6.37;100.00;102523.59;5070535;28;20097;-61
2023/04/18 01:28:21;;;;;;;12.82;8.50;;;;;;;6.28;100.00;102520.34;5072244;28;20040;-61
2023/04/18 01:30:49;;;;;;;16.35;8.52;;;;;;;6.29;100.00;102514.22;5072714;28;20058;-53
2023/04/18 01:33:17;;;;;;;13.98;8.38;;;;;;;6.26;100.00;102509.91;5074066;28;20040;-61
2023/04/18 01:35:46;;;;;;;15.00;8.70;;;;;;;6.30;100.00;102516.81;5073858;28;20059;-61
2023/04/18 01:38:17;;;;;;;16.90;8.57;;;;;;;6.20;100.00;102516.13;5071489;28;20377;-61
2023/04/18 01:40:45;;;;;;;12.68;7.75;;;;;;;6.14;100.00;102512.78;5070632;28;20079;-61
2023/04/18 01:43:15;;;;;;;14.30;8.35;;;;;;;6.14;100.00;102521.47;5068027;28;20056;-53
2023/04/18 01:45:43;;;;;;;15.43;8.30;;;;;;;6.10;100.00;102514.56;5071173;28;20098;-54
2023/04/18 01:48:11;;;;;;;13.95;7.97;;;;;;;6.06;100.00;102510.31;5069376;28;20059;-61
2023/04/18 01:50:39;;;;;;;16.33;8.00;;;;;;;6.11;100.00;102515.44;5071259;28;20052;-60
2023/04/18 01:53:07;;;;;;;12.90;7.82;;;;;;;6.06;100.00;102516.38;5073220;28;20045;-60
2023/04/18 01:55:35;;;;;;;15.00;8.65;;;;;;;6.04;100.00;102509.47;5073181;28;20068;-60
2023/04/18 01:58:03;;;;;;;13.70;8.32;;;;;;;5.98;100.00;102510.44;5068847;28;20148;-60
2023/04/18 02:00:33;;;;;;;14.48;8.00;;;;;;;5.93;100.00;102501.78;5070806;28;20131;-61
2023/04/18 02:03:01;;;;;;;12.82;8.00;;;;;;;5.89;100.00;102495.78;5072248;28;20068;-61
2023/04/18 02:05:29;;;;;;;15.13;8.32;;;;;;;5.86;100.00;102510.66;5071080;28;20565;-61
2023/04/18 02:07:58;;;;;;;13.38;8.02;;;;;;;5.85;100.00;102509.78;5069316;28;20098;-60
2023/04/18 02:10:26;;;;;;;15.88;8.32;;;;;;;5.79;100.00;102509.03;5069101;28;20433;-61
2023/04/18 02:12:54;;;;;;;13.77;9.25;;;;;;;5.79;100.00;102509.91;5068347;28;20143;-61
2023/04/18 02:15:24;;;;;;;15.90;8.50;;;;;;;5.76;100.00;102505.59;5073221;28;20475;-60
2023/04/18 02:17:54;;;;;;;12.70;7.65;;;;;;;5.74;100.00;102501.31;5072898;28;20375;-61
2023/04/18 02:20:22;;;;;;;13.88;8.73;;;;;;;5.71;100.00;102509.19;5073367;28;20036;-61
2023/04/18 02:22:50;;;;;;;13.63;7.90;;;;;;;5.68;100.00;102502.25;5068885;28;20040;-61
2023/04/18 02:25:22;;;;;;;14.35;8.20;;;;;;;5.63;100.00;102508.47;5069692;28;20090;-61
2023/04/18 02:27:50;;;;;;;11.97;7.80;;;;;;;5.57;100.00;102499.84;5073240;28;20551;-61
2023/04/18 02:30:22;;;;;;;14.85;8.50;;;;;;;5.59;100.00;102502.44;5072648;28;20059;-61
2023/04/18 02:32:51;;;;;;;14.20;8.48;;;;;;;5.56;100.00;102498.13;5072522;28;20051;-61
2023/04/18 02:35:21;;;;;;;17.67;8.93;;;;;;;5.57;100.00;102502.44;5072351;28;20053;-61
2023/04/18 02:37:49;;;;;;;16.13;8.70;;;;;;;5.50;100.00;102500.84;5072312;28;20075;-61
2023/04/18 02:40:19;;;;;;;13.65;7.70;;;;;;;5.45;100.00;102500.06;5072738;28;20052;-60
2023/04/18 02:42:47;;;;;;;16.17;8.25;;;;;;;5.44;100.00;102506.19;5070355;28;20048;-61
2023/04/18 02:45:15;;;;;;;12.10;7.75;;;;;;;5.50;100.00;102505.22;5068158;28;20465;-61
2023/04/18 02:47:44;;;;;;;13.57;8.73;;;;;;;5.43;100.00;102501.84;5068721;28;20106;-61
2023/04/18 02:50:25;;;;;;;13.57;8.02;;;;;;;5.36;100.00;102500.22;5070843;28;20466;-60
2023/04/18 02:52:54;;;;;;;13.18;7.68;;;;;;;5.36;100.00;102508.06;5068777;28;20048;-61
2023/04/18 02:55:25;;;;;;;14.93;8.70;;;;;;;5.32;100.00;102504.63;5070448;28;20055;-61
2023/04/18 02:57:54;;;;;;;16.45;9.20;;;;;;;5.32;100.00;102506.38;5072431;28;20049;-61
2023/04/18 03:00:22;;;;;;;14.25;8.43;;;;;;;5.34;100.00;102504.59;5068940;28;20571;-61
2023/04/18 03:02:51;;;;;;;13.43;8.23;;;;;;;5.28;100.00;102502.13;5069469;28;20056;-62
2023/04/18 03:05:21;;;;;;;13.00;8.32;;;;;;;5.29;100.00;102503.81;5070423;28;20076;-61
2023/04/18 03:07:51;;;;;;;13.00;7.65;;;;;;;5.23;100.00;102504.78;5068505;28;20098;-52
2023/04/18 03:10:22;;;;;;;14.63;8.15;;;;;;;5.21;100.00;102504.81;5068328;28;20048;-61
2023/04/18 03:12:50;;;;;;;16.08;9.15;;;;;;;5.18;100.00;102509.19;5067897;28;20072;-61
2023/04/18 03:15:18;;;;;;;14.68;8.57;;;;;;;5.09;100.00;102505.00;5069265;28;20052;-52
2023/04/18 03:17:46;;;;;;;13.55;8.48;;;;;;;5.14;100.00;102513.63;5072395;28;20041;-53
2023/04/18 03:20:14;;;;;;;14.95;9.15;;;;;;;5.10;100.00;102505.84;5072402;28;20055;-53
2023/04/18 03:22:42;;;;;;;14.88;8.73;;;;;;;5.03;100.00;102511.19;5069711;28;20044;-54
2023/04/18 03:25:12;;;;;;;13.55;8.20;;;;;;;5.06;100.00;102502.44;5067415;28;20049;-52
2023/04/18 03:27:41;;;;;;;13.80;8.85;;;;;;;5.03;100.00;102507.69;5067708;28;20354;-53
2023/04/18 03:30:10;;;;;;;13.52;8.43;;;;;;;5.03;100.00;102495.53;5067860;28;20044;-61
2023/04/18 03:32:38;;;;;;;14.40;8.20;;;;;;;5.06;100.00;102505.06;5068901;28;20390;-61
2023/04/18 03:35:06;;;;;;;13.55;8.10;;;;;;;5.08;100.00;102495.44;5068030;28;20048;-61
2023/04/18 03:37:35;;;;;;;13.27;8.68;;;;;;;5.06;100.00;102503.31;5068417;28;20106;-61
2023/04/18 03:40:04;;;;;;;13.65;8.77;;;;;;;5.06;100.00;102503.31;5065782;28;20045;-51
2023/04/18 03:42:33;;;;;;;15.05;9.38;;;;;;;5.10;100.00;102496.31;5067210;28;20044;-52
2023/04/18 03:45:05;;;;;;;14.60;8.50;;;;;;;5.17;100.00;102497.91;5066537;28;20064;-49
2023/04/18 03:47:33;;;;;;;13.80;8.50;;;;;;;5.11;100.00;102511.03;5068768;28;20088;-52
2023/04/18 03:50:01;;;;;;;16.25;8.85;;;;;;;5.14;100.00;102508.41;5067823;28;20456;-51
2023/04/18 03:52:29;;;;;;;14.93;8.95;;;;;;;5.13;100.00;102504.06;5066911;28;20106;-50
2023/04/18 03:54:57;;;;;;;15.60;9.30;;;;;;;5.14;100.00;102500.59;5068134;28;20049;-51
2023/04/18 03:57:26;;;;;;;16.05;9.82;;;;;;;5.16;100.00;102504.00;5071796;28;20717;-52
2023/04/18 03:59:55;;;;;;;14.55;8.48;;;;;;;5.19;100.00;102500.50;5071546;28;20425;-52
2023/04/18 04:02:23;;;;;;;18.23;9.63;;;;;;;5.21;100.00;102507.41;5071460;28;20053;-52
2023/04/18 04:04:52;;;;;;;14.73;8.90;;;;;;;5.25;100.00;102493.44;5067337;28;20044;-50
2023/04/18 04:07:20;;;;;;;14.18;8.48;;;;;;;5.26;100.00;102507.31;5067278;28;20059;-52
2023/04/18 04:09:48;;;;;;;15.20;9.25;;;;;;;5.26;100.00;102504.72;5069290;28;20075;-52
2023/04/18 04:12:16;;;;;;;15.30;9.55;;;;;;;5.25;100.00;102509.09;5068965;28;20056;-53
2023/04/18 04:14:44;;;;;;;17.45;9.48;;;;;;;5.28;100.00;102512.53;5068193;28;20064;-50
2023/04/18 04:17:14;;;;;;;14.40;8.85;;;;;;;5.40;100.00;102504.50;5071706;28;20053;-51
2023/04/18 04:19:42;;;;;;;14.05;8.93;;;;;;;5.37;100.00;102501.94;5074939;28;20063;-52
2023/04/18 04:22:10;;;;;;;14.80;9.05;;;;;;;5.34;100.00;102505.44;5070502;28;20130;-50
2023/04/18 04:24:39;;;;;;;15.57;8.90;;;;;;;5.36;100.00;102501.09;5072866;28;20521;-52
2023/04/18 04:27:07;;;;;;;18.02;9.95;;;;;;;5.35;100.00;102496.75;5075060;28;20539;-51
2023/04/18 04:29:37;;;;;;;15.13;9.73;;;;;;;5.37;100.00;102504.53;5071754;28;20496;-52
2023/04/18 04:32:05;;;;;;;15.27;9.00;;;;;;;5.45;100.00;102505.28;5071368;28;20056;-52
2023/04/18 04:34:35;;;;;;;14.18;9.23;;;;;;;5.44;100.00;102498.34;5075395;28;20044;-52
2023/04/18 04:37:03;;;;;;;15.07;9.35;;;;;;;5.49;100.00;102512.16;5074997;28;20511;-53
2023/04/18 04:39:31;;;;;;;14.07;8.90;;;;;;;5.55;100.00;102504.25;5074963;28;20049;-52
2023/04/18 04:42:02;;;;;;;17.05;8.63;;;;;;;5.51;100.00;102497.34;5071026;28;20044;-51
2023/04/18 04:44:30;;;;;;;16.83;8.68;;;;;;;5.57;100.00;102505.06;5071153;28;20044;-51
2023/04/18 04:46:59;;;;;;;14.85;9.07;;;;;;;5.55;100.00;102511.22;5073507;28;20060;-50
2023/04/18 04:49:27;;;;;;;13.73;8.35;;;;;;;5.56;100.00;102512.91;5073406;28;20051;-53
2023/04/18 04:51:56;;;;;;;15.85;8.82;;;;;;;5.63;100.00;102517.16;5074767;28;20403;-52
2023/04/18 04:54:28;;;;;;;15.45;8.82;;;;;;;5.66;100.00;102521.44;5074798;28;20052;-52
2023/04/18 04:56:56;;;;;;;15.52;9.30;;;;;;;5.67;100.00;102516.22;5074666;28;20055;-51
2023/04/18 04:59:24;;;;;;;12.82;8.60;;;;;;;5.65;100.00;102512.75;5074521;28;20048;-51
2023/04/18 05:01:52;;;;;;;14.30;9.07;;;;;;;5.60;100.00;102517.19;5074457;28;20040;-51
2023/04/18 05:04:21;;;;;;;15.65;8.82;;;;;;;5.64;100.00;102521.47;5072505;28;20048;-51
2023/04/18 05:06:49;;;;;;;14.93;9.95;;;;;;;5.61;100.00;102526.75;5070818;28;20503;-51
2023/04/18 05:09:19;;;;;;;15.48;8.80;;;;;;;5.63;100.00;102535.44;5074293;28;20120;-52
2023/04/18 05:11:48;;;;;;;15.07;9.15;;;;;;;5.62;100.00;102527.59;5074475;28;20055;-51
2023/04/18 05:14:16;;;;;;;14.82;9.15;;;;;;;5.66;100.00;102527.53;5074026;28;20445;-52
2023/04/18 05:16:44;;;;;;;14.68;8.85;;;;;;;5.69;100.00;102531.84;5072432;28;20048;-60
2023/04/18 05:19:13;;;;;;;16.27;9.93;;;;;;;5.68;100.00;102533.59;5070466;28;20062;-60
2023/04/18 05:21:41;;;;;;;15.40;9.60;;;;;;;5.72;100.00;102532.63;5073118;28;20659;-61
2023/04/18 05:24:09;;;;;;;13.63;9.20;;;;;;;5.70;100.00;102531.81;5073399;28;20052;-61
2023/04/18 05:26:39;;;;;;;16.27;9.45;;;;;;;5.72;100.00;102537.00;5069209;28;20053;-60
2023/04/18 05:29:07;;;;;;;16.60;9.48;;;;;;;5.73;100.00;102538.75;5070720;28;20142;-60
2023/04/18 05:31:35;;;;;;;15.57;9.38;;;;;;;5.75;100.00;102534.34;5074240;28;20078;-60
2023/04/18 05:34:03;;;;;;;15.75;8.98;;;;;;;5.80;100.00;102540.34;5074471;28;20410;-60
2023/04/18 05:36:32;;;;;;;15.98;9.68;;;;;;;5.87;100.00;102534.13;5073796;28;20048;-60
2023/04/18 05:39:00;;;;;;;15.23;8.75;;;;;;;5.86;100.00;102542.88;5069716;28;20040;-51
2023/04/18 05:41:28;;;;;;;14.73;8.63;;;;;;;5.90;100.00;102548.88;5071500;28;20051;-51
2023/04/18 05:43:57;;;;;;;15.52;9.35;;;;;;;6.00;100.00;102540.03;5071647;28;20052;-60
2023/04/18 05:46:44;;;;;;;14.70;9.38;;;;;;;6.05;100.00;102542.53;5070459;28;20052;-60
2023/04/18 05:49:12;;;;;;;17.38;8.98;;;;;;;6.07;100.00;102552.06;5070464;28;20542;-60
2023/04/18 05:51:40;;;;;;;13.45;8.18;;;;;;;6.12;100.00;102549.34;5069893;28;20110;-60
2023/04/18 05:54:08;;;;;;;15.52;9.07;;;;;;;6.23;100.00;102546.53;5068931;28;20471;-61
2023/04/18 05:56:44;;;;;;;17.45;9.80;;;;;;;6.21;100.00;102549.19;5072454;28;20048;-52
2023/04/18 05:59:14;;;;;;;14.75;9.40;;;;;;;6.22;100.00;102548.28;5073473;28;20118;-61
2023/04/18 06:01:43;;;;;;;13.07;8.70;;;;;;;6.35;100.00;102554.13;5073775;28;20534;-61
2023/04/18 06:04:11;;;;;;;16.17;9.80;;;;;;;6.35;100.00;102550.66;5072222;28;20128;-62
2023/04/18 06:06:39;;;;;;;16.27;9.30;;;;;;;6.37;100.00;102548.91;5069466;28;20048;-61
2023/04/18 06:09:07;;;;;;;14.95;9.05;;;;;;;6.41;100.00;102546.19;5072175;28;20048;-61
2023/04/18 06:11:35;;;;;;;15.88;9.35;;;;;;;6.51;100.00;102546.00;5073285;28;20087;-61
2023/04/18 06:14:04;;;;;;;18.08;9.07;;;;;;;6.63;100.00;102544.88;5073009;28;20045;-61
2023/04/18 06:16:33;;;;;;;15.68;9.48;;;;;;;6.70;100.00;102552.53;5069942;28;20048;-61
2023/04/18 06:19:02;;;;;;;16.73;9.48;;;;;;;6.76;100.00;102552.41;5070804;28;20043;-61
2023/04/18 06:21:30;;;;;;;15.07;9.75;;;;;;;6.82;100.00;102550.56;5073009;28;20076;-61
2023/04/18 06:24:00;;;;;;;17.33;9.73;;;;;;;6.86;100.00;102563.53;5070153;28;20083;-52
2023/04/18 06:26:29;;;;;;;17.13;9.10;;;;;;;6.90;100.00;102559.97;5068329;28;20067;-52
2023/04/18 06:28:57;;;;;;;14.02;9.05;;;;;;;6.94;100.00;102561.59;5068727;28;20121;-53
2023/04/18 06:31:25;;;;;;;16.35;9.50;;;;;;;6.97;100.00;102563.31;5069199;28;20072;-51
2023/04/18 06:33:54;;;;;;;15.90;9.02;;;;;;;6.98;100.00;102572.00;5071469;28;20048;-52
2023/04/18 06:36:23;;;;;;;13.82;8.10;;;;;;;7.03;100.00;102567.53;5073045;28;20075;-52
2023/04/18 06:38:51;;;;;;;13.05;8.68;;;;;;;7.04;100.00;102571.88;5072398;28;20442;-53
2023/04/18 06:41:19;;;;;;;15.30;7.80;;;;;;;7.09;100.00;102580.47;5071415;28;20044;-53
2023/04/18 06:43:50;;;;;;;14.43;9.13;;;;;;;7.09;100.00;102572.63;5068842;28;20056;-54
2023/04/18 06:46:31;;;;;;;12.90;8.20;;;;;;;7.18;100.00;102579.41;5070375;28;20131;-54
2023/04/18 06:49:01;;;;;;;13.25;7.97;;;;;;;7.26;100.00;102580.94;5072654;28;20380;-51
2023/04/18 06:51:29;;;;;;;13.43;8.10;;;;;;;7.39;100.00;102575.41;5068773;28;20106;-51
2023/04/18 06:53:57;;;;;;;13.93;8.15;;;;;;;7.46;100.00;102569.13;5068413;28;20056;-51
2023/04/18 06:56:25;;;;;;;12.10;7.22;;;;;;;7.52;100.00;102574.19;5067980;28;20049;-53
2023/04/18 06:58:53;;;;;;;13.25;7.68;;;;;;;7.63;100.00;102575.72;5070091;28;20720;-52
2023/04/18 07:01:22;;;;;;;13.27;7.70;;;;;;;7.80;100.00;102578.75;5071014;28;20106;-53
2023/04/18 07:03:50;;;;;;;11.27;7.28;;;;;;;7.85;100.00;102579.47;5067936;28;20056;-53
2023/04/18 07:06:22;;;;;;;12.07;7.43;;;;;;;7.95;100.00;102583.59;5067965;28;20398;-62
2023/04/18 07:08:58;;;;;;;12.85;7.47;;;;;;;7.97;100.00;102583.56;5069968;28;20044;-61
2023/04/18 07:11:27;;;;;;;13.95;7.40;;;;;;;8.03;100.00;102587.75;5072541;28;20535;-61
2023/04/18 07:13:55;;;;;;;13.80;7.05;;;;;;;8.13;100.00;102591.88;5072276;28;20105;-61
2023/04/18 07:16:23;;;;;;;12.77;7.43;;;;;;;8.16;100.00;102606.66;5072159;28;20048;-62
2023/04/18 07:18:51;;;;;;;10.70;6.35;;;;;;;8.24;100.00;102589.81;5069003;28;20048;-61
2023/04/18 07:21:19;;;;;;;11.40;7.25;;;;;;;8.35;100.00;102597.38;5068121;28;20044;-62
2023/04/18 07:23:49;;;;;;;11.20;6.63;;;;;;;8.48;100.00;102597.06;5068416;28;20396;-61
2023/04/18 07:26:17;;;;;;;12.20;6.97;;;;;;;8.50;100.00;102593.50;5068075;28;20079;-60
2023/04/18 07:28:45;;;;;;;10.45;6.82;;;;;;;8.51;100.00;102597.84;5068364;28;20060;-61
2023/04/18 07:31:15;;;;;;;10.65;6.97;;;;;;;8.63;100.00;102599.25;5072294;28;20044;-61
2023/04/18 07:33:46;;;;;;;10.82;6.55;;;;;;;8.80;100.00;102602.22;5072539;28;20049;-60
2023/04/18 07:36:14;;;;;;;10.45;6.47;;;;;;;8.86;100.00;102606.47;5072161;28;20052;-53
2023/04/18 07:38:43;;;;;;;9.25;5.85;;;;;;;8.99;100.00;102595.59;5069605;28;20703;-53
2023/04/18 07:41:15;;;;;;;11.23;6.53;;;;;;;9.18;100.00;102604.59;5067773;28;20131;-54
2023/04/18 07:43:44;;;;;;;11.82;6.68;;;;;;;9.28;100.00;102606.03;5071719;28;20102;-53
2023/04/18 07:46:12;;;;;;;10.68;6.35;;;;;;;9.41;100.00;102601.25;5071939;28;20487;-54
2023/04/18 07:48:43;;;;;;;12.05;7.53;;;;;;;9.51;100.00;102601.81;5070443;28;20049;-50
2023/04/18 07:51:11;;;;;;;11.40;6.75;;;;;;;9.55;100.00;102608.66;5071455;28;20040;-53
2023/04/18 07:53:43;;;;;;;11.35;6.80;;;;;;;9.42;100.00;102607.34;5071208;28;20049;-52
2023/04/18 07:56:13;;;;;;;10.85;6.63;;;;;;;9.68;100.00;102609.16;5075119;28;20227;-62
2023/04/18 07:58:42;;;;;;;9.25;6.07;;;;;;;9.67;100.00;102610.03;5070582;28;20055;-64
2023/04/18 08:01:12;;;;;;;10.77;6.50;;;;;;;9.74;100.00;102619.44;5071770;28;20041;-61
2023/04/18 08:03:41;;;;;;;10.13;6.00;;;;;;;9.64;100.00;102613.63;5074516;28;20048;-62
2023/04/18 08:06:10;;;;;;;10.80;6.65;;;;;;;9.66;100.00;102610.09;5075488;28;20068;-63
2023/04/18 08:08:40;;;;;;;13.35;7.00;;;;;;;9.79;100.00;102606.16;5075631;28;20044;-62
2023/04/18 08:11:09;;;;;;;10.10;6.63;;;;;;;9.86;100.00;102612.91;5074455;28;20037;-62
2023/04/18 08:13:37;;;;;;;12.20;6.72;;;;;;;9.82;100.00;102611.31;5071194;28;20109;-54
2023/04/18 08:16:06;;;;;;;10.52;6.30;;;;;;;9.76;100.00;102619.38;5073757;28;20049;-54
2023/04/18 08:18:35;;;;;;;11.02;6.30;;;;;;;9.83;100.00;102623.53;5074249;28;20049;-53
2023/04/18 08:21:04;;;;;;;12.23;6.90;;;;;;;9.78;100.00;102618.41;5071800;28;20072;-53
2023/04/18 08:23:32;;;;;;;10.27;6.55;;;;;;;9.72;100.00;102617.75;5072141;28;20048;-54
2023/04/18 08:26:00;;;;;;;10.57;6.28;;;;;;;9.65;100.00;102622.34;5075061;28;20059;-52
2023/04/18 08:28:28;;;;;;;10.57;6.70;;;;;;;9.69;100.00;102623.13;5073054;28;20499;-54
2023/04/18 08:30:56;;;;;;;9.73;6.30;;;;;;;9.64;100.00;102625.91;5070064;28;20044;-54
2023/04/18 08:33:27;;;;;;;10.13;6.00;;;;;;;9.62;100.00;102632.97;5073389;28;20105;-62
2023/04/18 08:35:55;;;;;;;11.05;7.07;;;;;;;9.53;100.00;102636.78;5075201;28;20055;-62
2023/04/18 08:38:23;;;;;;;11.68;7.15;;;;;;;9.71;100.00;102630.06;5075068;28;20052;-62
2023/04/18 08:40:51;;;;;;;10.82;6.05;;;;;;;9.70;100.00;102632.72;5075055;28;20383;-62
2023/04/18 08:43:19;;;;;;;10.45;6.75;;;;;;;9.72;100.00;102637.03;5075025;28;20040;-62
2023/04/18 08:45:47;;;;;;;11.40;6.25;;;;;;;9.85;100.00;102631.38;5072010;28;20044;-62
2023/04/18 08:48:18;;;;;;;10.40;6.72;;;;;;;9.76;100.00;102633.41;5071151;28;20083;-62
2023/04/18 08:50:48;;;;;;;11.20;6.53;;;;;;;9.77;100.00;102632.47;5071439;28;20139;-54
2023/04/18 08:53:17;;;;;;;10.70;6.45;;;;;;;9.88;100.00;102632.09;5071204;28;20483;-62
2023/04/18 08:55:46;;;;;;;9.45;5.78;;;;;;;9.85;100.00;102636.63;5070149;28;20044;-62
2023/04/18 08:58:21;;;;;;;9.10;5.55;;;;;;;9.83;100.00;102631.41;5070606;28;20040;-50
2023/04/18 09:00:53;;;;;;;11.25;5.60;;;;;;;9.73;100.00;102633.47;5070597;28;20125;-63
2023/04/18 09:03:38;;;;;;;10.15;6.00;;;;;;;9.73;100.00;102633.47;5071941;28;20128;-62
2023/04/18 09:06:11;;;;;;;9.98;5.53;;;;;;;9.96;100.00;102639.72;5069988;28;20040;-62
2023/04/18 09:08:43;;;;;;;9.10;5.60;;;;;;;9.96;100.00;102635.31;5070740;28;20518;-62
2023/04/18 09:11:25;;;;;;;9.20;5.78;;;;;;;9.88;100.00;102642.63;5073607;28;20491;-62
2023/04/18 09:13:55;;;;;;;10.05;5.47;;;;;;;9.93;100.00;102637.22;5073442;28;20373;-62
2023/04/18 09:16:23;;;;;;;10.73;5.43;;;;;;;9.91;100.00;102636.41;5070794;28;20051;-62
2023/04/18 09:19:12;;;;;;;8.90;5.13;;;;;;;10.08;100.00;102628.78;5070924;28;20048;-62
2023/04/18 09:21:45;;;;;;;11.23;5.32;;;;;;;10.23;100.00;102631.81;5073883;28;20044;-54
2023/04/18 09:24:22;;;;;;;8.77;4.93;;;;;;;10.32;100.00;102636.72;5073225;28;20736;-53
2023/04/18 09:26:52;;;;;;;10.32;5.57;;;;;;;10.37;100.00;102632.19;5069915;28;20056;-54
2023/04/18 09:29:22;;;;;;;9.20;5.53;;;;;;;10.47;100.00;102644.13;5070542;28;20071;-51
2023/04/18 09:31:58;;;;;;;8.73;5.07;;;;;;;10.49;100.00;102638.81;5070938;28;20041;-54
2023/04/18 09:34:27;;;;;;;8.75;5.30;;;;;;;10.51;100.00;102633.47;5070612;28;20037;-52
2023/04/18 09:37:10;;;;;;;9.05;5.32;;;;;;;10.53;100.00;102637.78;5069795;28;20041;-53
2023/04/18 09:39:40;;;;;;;9.68;5.68;;;;;;;10.51;100.00;102636.94;5070331;28;20052;-53
2023/04/18 09:42:09;;;;;;;9.60;5.35;;;;;;;10.51;100.00;102631.69;5072363;28;20098;-54
2023/04/18 09:44:38;;;;;;;8.93;5.50;;;;;;;10.53;100.00;102629.88;5073678;28;20131;-54
2023/04/18 09:47:07;;;;;;;9.32;5.43;;;;;;;10.70;100.00;102623.97;5073727;28;20119;-53
2023/04/18 09:49:35;;;;;;;9.23;5.57;;;;;;;10.76;100.00;102621.13;5071016;28;20052;-54
2023/04/18 09:52:07;;;;;;;9.05;5.68;;;;;;;11.02;100.00;102621.06;5069846;28;20115;-55
2023/04/18 09:54:39;;;;;;;10.00;5.80;;;;;;;11.21;100.00;102624.69;5069851;28;20527;-55
2023/04/18 09:57:11;;;;;;;9.57;5.27;;;;;;;11.32;100.00;102616.38;5067590;28;20057;-54
2023/04/18 09:59:46;;;;;;;9.15;5.15;;;;;;;11.24;100.00;102611.38;5070630;28;20413;-54
2023/04/18 10:02:20;;;;;;;9.20;5.65;;;;;;;11.14;100.00;102616.16;5071896;28;20048;-55
2023/04/18 10:04:50;;;;;;;9.73;5.50;;;;;;;11.20;100.00;102607.16;5070033;28;20044;-55
2023/04/18 10:07:20;;;;;;;8.13;5.20;;;;;;;11.40;100.00;102616.91;5069587;28;20501;-55
2023/04/18 10:09:49;;;;;;;9.35;5.50;;;;;;;11.22;100.00;102610.59;5069596;28;20066;-53
2023/04/18 10:12:18;;;;;;;10.20;5.88;;;;;;;11.59;100.00;102605.59;5069292;28;20123;-55
2023/04/18 10:14:49;;;;;;;9.10;5.55;;;;;;;11.77;100.00;102604.00;5073158;28;20401;-54
2023/04/18 10:17:21;;;;;;;9.68;5.30;;;;;;;11.97;100.00;102611.94;5070510;28;20056;-64
2023/04/18 10:20:05;;;;;;;11.50;5.95;;;;;;;12.05;100.00;102600.19;5069072;28;20738;-63
2023/04/18 10:22:35;;;;;;;11.13;5.78;;;;;;;12.27;100.00;102606.25;5069356;28;20044;-63
2023/04/18 10:25:06;;;;;;;9.43;5.60;;;;;;;12.45;100.00;102606.34;5072927;28;20102;-64
2023/04/18 10:27:58;;;;;;;8.73;5.38;;;;;;;12.54;99.28;102611.19;5070342;28;20048;-63
2023/04/18 10:30:50;;;;;;;9.52;5.72;;;;;;;12.65;98.46;102608.06;5068442;28;20053;-54
2023/04/18 10:33:29;;;;;;;9.57;5.95;;;;;;;12.56;98.31;102612.00;5072991;28;20044;-54
2023/04/18 10:36:02;;;;;;;10.55;5.65;;;;;;;12.60;98.34;102607.44;5072849;28;20066;-50
2023/04/18 10:38:31;;;;;;;9.50;5.10;;;;;;;12.69;97.13;102609.63;5069310;28;20062;-51
2023/04/18 10:41:23;;;;;;;9.07;5.72;;;;;;;12.50;97.97;102612.25;5069079;28;20510;-55
2023/04/18 10:44:21;;;;;;;11.75;6.30;;;;;;;12.46;98.24;102602.75;5068893;28;20059;-54
2023/04/18 10:47:21;;;;;;;10.35;5.97;;;;;;;12.50;97.33;102610.50;5071886;28;20049;-53
2023/04/18 10:49:57;;;;;;;10.50;6.60;;;;;;;12.45;99.35;102601.94;5072784;28;20507;-53
2023/04/18 10:52:27;;;;;;;10.05;6.15;;;;;;;12.40;99.20;102600.44;5072414;28;20495;-54
2023/04/18 10:55:03;;;;;;;12.23;6.28;;;;;;;12.58;98.57;102596.94;5072252;28;20056;-54
2023/04/18 10:57:40;;;;;;;10.73;6.28;;;;;;;12.54;97.63;102590.09;5072483;28;20052;-53
2023/04/18 11:00:11;;;;;;;11.10;6.80;;;;;;;12.42;98.71;102603.84;5072448;28;20444;-54
2023/04/18 11:02:40;;;;;;;9.93;6.30;;;;;;;12.62;97.44;102595.88;5071194;28;20048;-55
2023/04/18 11:05:09;;;;;;;10.50;6.38;;;;;;;12.74;98.56;102591.81;5068758;28;20559;-54
2023/04/18 11:07:39;;;;;;;10.75;6.50;;;;;;;12.79;97.26;102583.69;5068659;28;20045;-53
2023/04/18 11:10:09;;;;;;;10.90;6.97;;;;;;;12.82;97.22;102583.53;5071942;28;20135;-53
2023/04/18 11:12:40;;;;;;;10.43;6.72;;;;;;;12.76;97.53;102582.06;5072416;28;20033;-53
2023/04/18 11:15:11;;;;;;;11.18;6.80;;;;;;;12.71;98.50;102591.97;5070600;28;20071;-54
2023/04/18 11:17:40;;;;;;;10.70;6.72;;;;;;;12.77;100.00;102585.53;5068926;28;20075;-53
2023/04/18 11:20:10;;;;;;;11.18;7.45;;;;;;;12.87;98.95;102580.66;5067709;28;20074;-55
2023/04/18 11:22:46;;;;;;;11.73;7.55;;;;;;;12.63;98.17;102580.91;5068970;28;20522;-56
2023/04/18 11:25:15;;;;;;;9.65;6.55;;;;;;;12.75;98.57;102579.44;5072150;28;20071;-55
2023/04/18 11:27:45;;;;;;;11.93;7.55;;;;;;;12.84;97.54;102576.38;5070423;28;20036;-55
2023/04/18 11:30:15;;;;;;;11.60;7.40;;;;;;;12.71;97.28;102577.88;5068665;28;20037;-54